Terminal Aerodrome Forecast
Issued by NWS San Angelo, TX

Home | Current Version | Previous Version | Text Only | Print | Product List | Glossary On
Versions: 1 2 3 4 5 6 7 8 9 10 11 12 13 14 15
000
FTUS44 KSJT 271050 AAB
TAFSJT
TAF AMD
KSJT 271050Z 2711/2806 20008KT P6SM BKN009
     FM271400 21012KT P6SM SCT250
     FM271900 22011G18KT P6SM SKC
     FM280100 18008KT P6SM SCT250=

USA.gov is the U.S. government's official web portal to all federal, state and local government web resources and services.